Time;durP1;ratioP1;P1;durP2;ratioP2;P2;SDS_P1;SDS_P2;PMS_P1;PMS_P2;Temp;Humidity;BMP_temperature;BMP_pressure;BME280_temperature;BME280_humidity;BME280_pressure;Samples;Min_cycle;Max_cycle;Signal;HPM_P1;HPM_P2
2021/07/09 00:02:04;;;;;;;10.63;9.53;;;;;;;16.64;81.55;102221.09;5032428;28;20493;-72
2021/07/09 00:04:30;;;;;;;11.40;9.47;;;;;;;16.23;81.68;102154.34;5030421;28;20439;-72
2021/07/09 00:06:56;;;;;;;12.50;10.47;;;;;;;16.41;82.59;102205.19;5027096;28;21079;-72
2021/07/09 00:09:23;;;;;;;13.50;9.30;;;;;;;16.65;81.58;102217.31;5031739;28;20188;-72
2021/07/09 00:11:51;;;;;;;11.70;9.80;;;;;;;16.65;81.22;102215.44;5030361;28;20647;-72
2021/07/09 00:14:19;;;;;;;12.57;10.13;;;;;;;16.15;80.68;102119.31;5034093;28;20462;-72
2021/07/09 00:16:45;;;;;;;11.27;10.10;;;;;;;16.21;81.10;102149.13;5033620;28;20457;-72
2021/07/09 00:19:11;;;;;;;11.37;10.27;;;;;;;16.74;81.40;102221.50;5036449;28;20494;-72
2021/07/09 00:21:37;;;;;;;11.07;9.97;;;;;;;16.47;81.52;102215.22;5030658;28;22914;-72
2021/07/09 00:24:04;;;;;;;10.83;9.17;;;;;;;16.69;81.32;102227.56;5035323;28;20211;-72
2021/07/09 00:26:31;;;;;;;10.80;9.80;;;;;;;16.67;81.43;102228.81;5032579;28;20987;-72
2021/07/09 00:28:57;;;;;;;10.13;9.13;;;;;;;16.07;81.96;102157.41;5048186;28;20498;-72
2021/07/09 00:31:24;;;;;;;10.10;9.00;;;;;;;16.40;81.83;102209.78;5032572;28;20434;-72
2021/07/09 00:33:49;;;;;;;12.83;9.57;;;;;;;16.38;81.66;102176.66;5029851;28;20449;-71
2021/07/09 00:36:15;;;;;;;9.37;8.13;;;;;;;16.57;81.93;102209.38;5028810;28;20459;-72
2021/07/09 00:38:41;;;;;;;10.17;9.17;;;;;;;15.84;82.06;102111.75;5037154;28;20646;-72
2021/07/09 00:41:06;;;;;;;9.70;8.50;;;;;;;16.08;81.53;102135.53;5032731;28;20466;-72
2021/07/09 00:43:32;;;;;;;10.83;9.73;;;;;;;16.40;82.38;102214.34;5027699;28;20235;-72
2021/07/09 00:45:57;;;;;;;10.67;9.50;;;;;;;16.48;82.50;102211.44;5029428;28;20207;-72
2021/07/09 00:48:23;;;;;;;10.70;9.17;;;;;;;16.18;81.61;102118.91;5032161;28;20266;-71
2021/07/09 00:50:48;;;;;;;10.60;9.60;;;;;;;16.17;82.63;102150.56;5027217;28;20242;-72
2021/07/09 00:53:14;;;;;;;12.27;9.80;;;;;;;16.52;82.26;102190.19;5032006;28;20330;-72
2021/07/09 00:55:40;;;;;;;11.50;9.77;;;;;;;16.26;82.54;102162.88;5027140;28;20215;-72
2021/07/09 00:58:05;;;;;;;10.37;9.37;;;;;;;16.19;82.21;102115.16;5034849;28;20192;-71
2021/07/09 01:00:32;;;;;;;9.97;8.97;;;;;;;16.59;82.23;102178.34;5031928;28;20184;-71
2021/07/09 01:02:58;;;;;;;10.93;9.23;;;;;;;16.28;81.83;102112.03;5030577;28;20188;-71
2021/07/09 01:05:23;;;;;;;10.47;9.37;;;;;;;16.45;82.39;102142.28;5031398;28;20457;-71
2021/07/09 01:07:49;;;;;;;9.93;8.63;;;;;;;16.00;83.23;102109.50;5031533;28;20435;-72
2021/07/09 01:10:17;;;;;;;9.77;8.70;;;;;;;16.34;83.11;102132.06;5034727;28;20543;-72
2021/07/09 01:12:44;;;;;;;11.57;10.37;;;;;;;16.76;82.42;102173.41;5029246;28;20254;-72
2021/07/09 01:15:12;;;;;;;12.90;11.50;;;;;;;16.88;81.62;102177.16;5035369;28;20632;-72
2021/07/09 01:17:38;;;;;;;13.10;10.63;;;;;;;16.45;81.84;102108.94;5033128;28;20525;-72
2021/07/09 01:20:09;;;;;;;12.70;11.37;;;;;;;17.00;81.36;102173.81;5027031;28;20536;-71
2021/07/09 01:22:38;;;;;;;12.30;11.00;;;;;;;16.68;82.75;102173.56;5030279;28;20497;-72
2021/07/09 01:25:15;;;;;;;13.63;10.93;;;;;;;16.63;82.78;102179.59;5030287;28;20934;-71
2021/07/09 01:27:43;;;;;;;13.20;11.80;;;;;;;16.40;83.58;102154.75;5028968;28;20443;-71
2021/07/09 01:30:12;;;;;;;13.40;12.00;;;;;;;16.87;82.26;102175.50;5034330;28;20449;-72
2021/07/09 01:32:37;;;;;;;16.10;12.90;;;;;;;16.83;82.11;102176.09;5028992;28;20431;-72
2021/07/09 01:35:04;;;;;;;14.80;12.80;;;;;;;16.80;82.62;102171.94;5028799;28;20890;-72
2021/07/09 01:37:29;;;;;;;15.37;13.60;;;;;;;16.61;83.40;102170.84;5030569;28;20188;-72
2021/07/09 01:39:55;;;;;;;13.50;12.10;;;;;;;16.03;82.94;102046.03;5032940;28;20446;-72
2021/07/09 01:42:20;;;;;;;15.90;13.47;;;;;;;16.54;83.21;102153.75;5031090;28;20200;-72
2021/07/09 01:44:46;;;;;;;16.60;14.30;;;;;;;16.14;84.57;102142.84;5027680;28;20196;-72
2021/07/09 01:47:11;;;;;;;17.57;14.43;;;;;;;16.15;83.99;102103.09;5040343;28;20187;-72
2021/07/09 01:49:58;;;;;;;15.47;13.87;;;;;;;15.92;83.90;102066.38;5028782;28;20193;-72
2021/07/09 01:52:25;;;;;;;17.07;14.03;;;;;;;16.60;83.27;102161.03;5031573;28;20602;-72
2021/07/09 01:54:53;;;;;;;14.37;12.87;;;;;;;16.64;83.47;102164.19;5030165;28;20997;-72
2021/07/09 01:57:18;;;;;;;15.50;14.00;;;;;;;16.73;82.50;102160.25;5028545;28;20489;-71
2021/07/09 01:59:44;;;;;;;15.53;14.00;;;;;;;16.50;83.47;102166.88;5030827;28;20919;-72
2021/07/09 02:02:11;;;;;;;14.90;13.30;;;;;;;16.69;82.40;102167.09;5032596;28;20255;-71
2021/07/09 02:04:50;;;;;;;17.83;14.20;;;;;;;16.58;82.81;102159.63;5030970;28;20203;-72
2021/07/09 02:07:17;;;;;;;17.50;13.37;;;;;;;15.99;84.10;102120.53;5033713;28;20480;-71
2021/07/09 02:09:45;;;;;;;16.93;14.10;;;;;;;15.95;83.67;102093.03;5035153;28;20470;-72
2021/07/09 02:12:11;;;;;;;13.63;12.20;;;;;;;16.60;82.88;102158.34;5031611;28;20946;-72
2021/07/09 02:14:37;;;;;;;15.53;13.77;;;;;;;15.70;84.24;102072.97;5033236;28;20537;-72
2021/07/09 02:17:14;;;;;;;16.60;13.67;;;;;;;16.31;82.62;102113.50;5031862;28;20498;-72
2021/07/09 02:19:41;;;;;;;13.70;12.13;;;;;;;16.49;83.46;102180.63;5030855;28;20441;-72
2021/07/09 02:22:12;;;;;;;14.10;12.30;;;;;;;16.48;83.46;102176.25;5028573;28;20493;-72
2021/07/09 02:24:43;;;;;;;12.53;11.20;;;;;;;16.23;83.98;102166.00;5029206;28;20450;-72
2021/07/09 02:27:09;;;;;;;16.03;12.50;;;;;;;16.18;84.29;102178.47;5030016;28;20526;-71
2021/07/09 02:29:35;;;;;;;14.57;13.00;;;;;;;15.96;85.18;102175.88;5028697;28;20536;-72
2021/07/09 02:32:03;;;;;;;13.80;12.00;;;;;;;15.77;85.11;102153.13;5028034;28;20632;-72
2021/07/09 02:34:30;;;;;;;14.03;12.53;;;;;;;15.75;84.63;102141.66;5029091;28;20455;-72
2021/07/09 02:36:55;;;;;;;15.30;12.80;;;;;;;15.84;83.29;102104.44;5028660;28;20977;-72
2021/07/09 02:39:22;;;;;;;16.37;13.00;;;;;;;16.01;83.94;102161.75;5027272;28;20446;-72
2021/07/09 02:41:48;;;;;;;14.27;12.13;;;;;;;16.17;82.72;102156.00;5028643;28;21428;-72
2021/07/09 02:44:14;;;;;;;17.30;13.27;;;;;;;15.63;81.58;102028.81;5030717;28;20473;-71
2021/07/09 02:46:39;;;;;;;14.43;12.80;;;;;;;16.12;82.28;102172.00;5030536;28;21005;-72
2021/07/09 02:49:05;;;;;;;15.20;12.90;;;;;;;15.85;82.67;102141.28;5027382;28;20525;-72
2021/07/09 02:51:30;;;;;;;16.47;14.40;;;;;;;16.27;81.63;102166.41;5030432;28;20192;-72
2021/07/09 02:53:55;;;;;;;13.57;12.17;;;;;;;16.16;82.34;102173.25;5032128;28;20189;-71
2021/07/09 02:56:21;;;;;;;13.30;11.90;;;;;;;16.04;83.61;102183.00;5028170;28;21140;-71
2021/07/09 02:58:46;;;;;;;15.37;13.70;;;;;;;16.02;83.33;102185.06;5026656;28;20227;-72
2021/07/09 03:01:11;;;;;;;15.03;13.40;;;;;;;15.40;84.43;102138.13;5026781;28;20546;-72
2021/07/09 03:03:37;;;;;;;17.63;13.43;;;;;;;15.67;85.15;102203.19;5027330;28;20235;-72
2021/07/09 03:06:02;;;;;;;14.80;12.57;;;;;;;15.85;84.92;102202.69;5027423;28;20679;-72
2021/07/09 03:08:27;;;;;;;17.37;12.93;;;;;;;15.88;84.35;102178.78;5029853;28;20270;-71
2021/07/09 03:10:53;;;;;;;16.10;12.80;;;;;;;15.87;83.71;102141.09;5029512;28;20597;-71
2021/07/09 03:13:18;;;;;;;16.90;13.70;;;;;;;16.12;84.55;102209.06;5028877;28;20188;-71
2021/07/09 03:15:43;;;;;;;19.20;14.73;;;;;;;15.70;84.81;102124.38;5030465;28;20299;-72
2021/07/09 03:18:09;;;;;;;15.67;13.43;;;;;;;16.47;83.18;102205.19;5045922;28;20200;-71
2021/07/09 03:20:34;;;;;;;17.70;15.47;;;;;;;16.54;82.72;102205.22;5032360;28;21180;-72
2021/07/09 03:23:00;;;;;;;17.40;15.47;;;;;;;16.27;83.82;102204.31;5030285;28;20298;-72
2021/07/09 03:25:25;;;;;;;15.17;13.53;;;;;;;15.91;83.85;102139.63;5026283;28;20227;-72
2021/07/09 03:27:51;;;;;;;15.80;13.97;;;;;;;16.38;83.57;102211.84;5027775;28;20188;-72
2021/07/09 03:30:17;;;;;;;13.97;12.53;;;;;;;16.45;83.82;102207.28;5030635;28;20647;-72
2021/07/09 03:32:42;;;;;;;16.73;13.73;;;;;;;16.33;83.96;102208.91;5027232;28;20644;-72
2021/07/09 03:35:09;;;;;;;15.73;13.97;;;;;;;15.90;83.96;102138.81;5030008;28;20468;-71
2021/07/09 03:37:35;;;;;;;15.60;13.50;;;;;;;16.12;83.67;102171.16;5032023;28;20655;-71
2021/07/09 03:40:00;;;;;;;16.53;13.50;;;;;;;16.04;83.66;102143.22;5035368;28;20446;-72
2021/07/09 03:42:26;;;;;;;20.43;15.20;;;;;;;16.31;83.38;102178.50;5032096;28;20523;-72
2021/07/09 03:44:51;;;;;;;17.40;14.80;;;;;;;15.74;84.03;102112.13;5032623;28;20189;-72
2021/07/09 03:47:17;;;;;;;18.07;15.83;;;;;;;16.22;84.01;102196.78;5032166;28;20228;-71
2021/07/09 03:49:42;;;;;;;15.83;13.43;;;;;;;16.40;83.03;102192.69;5030274;28;20203;-71
2021/07/09 03:52:07;;;;;;;15.37;13.77;;;;;;;16.28;83.83;102190.56;5033461;28;21138;-72
2021/07/09 03:54:34;;;;;;;15.43;13.80;;;;;;;16.19;84.08;102207.19;5031646;28;20176;-71
2021/07/09 03:57:00;;;;;;;17.50;13.53;;;;;;;16.11;83.68;102164.06;5032001;28;20204;-71
2021/07/09 03:59:25;;;;;;;16.53;14.73;;;;;;;16.23;84.29;102203.06;5033501;28;20434;-72
2021/07/09 04:01:50;;;;;;;17.83;13.50;;;;;;;16.20;83.52;102168.25;5032521;28;20234;-72
2021/07/09 04:04:16;;;;;;;20.07;14.87;;;;;;;16.09;83.11;102144.50;5031315;28;20671;-72
2021/07/09 04:06:41;;;;;;;17.80;13.37;;;;;;;15.70;83.60;102110.84;5030647;28;20270;-71
2021/07/09 04:09:06;;;;;;;18.60;13.17;;;;;;;15.87;83.79;102109.44;5034549;28;20197;-71
2021/07/09 04:11:32;;;;;;;17.80;14.57;;;;;;;16.39;83.53;102196.44;5033513;28;20605;-72
2021/07/09 04:13:57;;;;;;;18.43;14.80;;;;;;;16.34;84.09;102204.31;5033711;28;20243;-72
2021/07/09 04:16:23;;;;;;;15.60;13.10;;;;;;;15.87;83.80;102117.56;5031067;28;20743;-72
2021/07/09 04:18:48;;;;;;;14.63;13.00;;;;;;;16.17;83.98;102191.19;5031832;28;20689;-72
2021/07/09 04:21:13;;;;;;;15.30;13.07;;;;;;;16.45;83.34;102201.84;5031445;28;20219;-71
2021/07/09 04:23:39;;;;;;;15.67;13.67;;;;;;;16.19;83.02;102150.34;5030528;28;20215;-72
2021/07/09 04:26:04;;;;;;;15.07;12.43;;;;;;;16.37;83.97;102182.25;5030711;28;20215;-71
2021/07/09 04:28:29;;;;;;;14.30;12.20;;;;;;;16.20;84.57;102174.53;5034512;28;20200;-72
2021/07/09 04:30:55;;;;;;;18.37;13.03;;;;;;;15.83;84.01;102094.69;5036422;28;20545;-71
2021/07/09 04:33:22;;;;;;;15.33;11.97;;;;;;;16.28;84.01;102182.44;5035789;28;20188;-72
2021/07/09 04:35:49;;;;;;;13.20;11.90;;;;;;;16.10;84.23;102138.03;5028985;28;20298;-72
2021/07/09 04:38:14;;;;;;;14.90;11.93;;;;;;;16.53;84.07;102189.19;5031136;28;20455;-72
2021/07/09 04:40:39;;;;;;;13.90;11.80;;;;;;;16.33;84.47;102184.53;5033625;28;20454;-72
2021/07/09 04:43:05;;;;;;;13.10;10.50;;;;;;;16.42;84.42;102202.28;5033532;28;20199;-71
2021/07/09 04:45:30;;;;;;;14.43;11.93;;;;;;;16.36;84.99;102221.22;5030921;28;20205;-72
2021/07/09 04:47:56;;;;;;;13.70;11.30;;;;;;;16.19;83.89;102136.81;5032076;28;20192;-71
2021/07/09 04:50:21;;;;;;;13.30;11.67;;;;;;;16.24;84.32;102145.16;5030318;28;20344;-72
2021/07/09 04:52:46;;;;;;;14.83;11.73;;;;;;;16.08;83.36;102094.94;5034693;28;20242;-71
2021/07/09 04:55:13;;;;;;;16.87;13.63;;;;;;;16.40;83.53;102155.63;5034037;28;20318;-71
2021/07/09 04:57:38;;;;;;;16.70;13.70;;;;;;;16.78;83.25;102195.72;5032223;28;20187;-72
2021/07/09 05:00:05;;;;;;;14.87;13.27;;;;;;;16.39;83.02;102137.69;5033132;28;20806;-71
2021/07/09 05:02:31;;;;;;;17.00;14.33;;;;;;;16.50;83.02;102153.34;5033647;28;20204;-72
2021/07/09 05:04:56;;;;;;;17.07;14.00;;;;;;;16.79;83.02;102197.38;5027942;28;20449;-71
2021/07/09 05:07:21;;;;;;;19.70;15.50;;;;;;;16.60;83.77;102203.56;5032111;28;20595;-72
2021/07/09 05:09:47;;;;;;;18.77;15.90;;;;;;;16.40;82.98;102147.50;5031122;28;20188;-72
2021/07/09 05:12:12;;;;;;;17.23;15.23;;;;;;;16.50;84.24;102201.25;5039864;28;20185;-72
2021/07/09 05:14:38;;;;;;;17.93;14.40;;;;;;;16.82;83.11;102201.53;5033986;28;20184;-71
2021/07/09 05:17:04;;;;;;;19.63;15.90;;;;;;;16.57;82.41;102149.78;5027848;28;20679;-72
2021/07/09 05:19:29;;;;;;;16.80;14.37;;;;;;;16.29;83.30;102121.03;5030273;28;20196;-71
2021/07/09 05:21:55;;;;;;;17.33;15.53;;;;;;;16.28;84.08;102157.25;5029844;28;20510;-72
2021/07/09 05:24:24;;;;;;;16.93;14.83;;;;;;;16.32;83.94;102152.28;5031760;28;20646;-71
2021/07/09 05:26:50;;;;;;;15.90;14.27;;;;;;;16.13;84.02;102143.06;5024557;28;20208;-71
2021/07/09 05:29:15;;;;;;;16.00;12.73;;;;;;;16.64;83.52;102207.53;5030491;28;20794;-71
2021/07/09 05:31:41;;;;;;;15.70;12.77;;;;;;;16.46;82.17;102138.56;5028980;28;20192;-72
2021/07/09 05:34:07;;;;;;;13.13;11.80;;;;;;;16.49;82.70;102154.38;5034839;28;20188;-72
2021/07/09 05:36:32;;;;;;;12.93;11.43;;;;;;;16.31;82.24;102118.09;5027937;28;20650;-72
2021/07/09 05:38:57;;;;;;;13.57;11.90;;;;;;;16.56;82.06;102153.56;5028968;28;20196;-71
2021/07/09 05:41:23;;;;;;;12.33;11.03;;;;;;;16.64;83.23;102194.81;5030185;28;20216;-74
2021/07/09 05:43:49;;;;;;;12.07;10.30;;;;;;;16.83;82.85;102214.03;5030332;28;20192;-72
2021/07/09 05:46:15;;;;;;;12.20;10.90;;;;;;;16.51;82.62;102156.88;5029333;28;20576;-72
2021/07/09 05:48:40;;;;;;;11.07;9.97;;;;;;;16.71;81.83;102162.31;5033273;28;20435;-72
2021/07/09 05:51:06;;;;;;;11.40;10.30;;;;;;;16.78;82.83;102198.44;5036648;28;20192;-72
2021/07/09 05:53:31;;;;;;;10.20;9.17;;;;;;;16.69;82.64;102183.34;5035698;28;20180;-72
2021/07/09 05:55:58;;;;;;;10.20;9.20;;;;;;;16.50;82.60;102141.66;5031384;28;20251;-72
2021/07/09 05:58:23;;;;;;;11.80;9.23;;;;;;;16.98;82.11;102200.28;5028482;28;20184;-72
2021/07/09 06:00:49;;;;;;;12.13;10.40;;;;;;;17.04;82.08;102213.00;5022718;28;20915;-72
2021/07/09 06:03:14;;;;;;;10.60;9.40;;;;;;;17.09;81.87;102224.06;5028384;28;20197;-71
2021/07/09 06:05:40;;;;;;;9.47;8.57;;;;;;;16.98;81.18;102190.31;5026946;28;20215;-71
2021/07/09 06:08:07;;;;;;;11.50;10.30;;;;;;;17.06;81.62;102203.63;5030014;28;20192;-72
2021/07/09 06:10:33;;;;;;;11.50;9.97;;;;;;;16.96;81.06;102161.75;5031435;28;20575;-72
2021/07/09 06:12:59;;;;;;;10.17;8.80;;;;;;;16.61;82.80;102165.44;5031623;28;20442;-72
2021/07/09 06:15:27;;;;;;;11.60;9.93;;;;;;;16.98;82.42;102217.41;5032323;28;20961;-72
2021/07/09 06:17:53;;;;;;;14.20;10.90;;;;;;;16.83;81.28;102163.38;5033983;28;20192;-72
2021/07/09 06:20:18;;;;;;;15.13;11.80;;;;;;;17.09;80.79;102203.22;5027715;28;20577;-71
2021/07/09 06:22:46;;;;;;;14.77;12.30;;;;;;;17.35;79.64;102202.34;5029027;28;20517;-71
2021/07/09 06:25:12;;;;;;;17.07;12.90;;;;;;;16.84;80.40;102139.84;5030598;28;20629;-71
2021/07/09 06:27:37;;;;;;;14.53;11.90;;;;;;;16.77;80.44;102153.38;5032057;28;20945;-72
2021/07/09 06:30:04;;;;;;;13.30;11.47;;;;;;;17.11;80.90;102211.16;5031577;28;20450;-72
2021/07/09 06:32:29;;;;;;;12.57;11.23;;;;;;;16.73;81.58;102147.53;5030892;28;20184;-72
2021/07/09 06:34:55;;;;;;;12.73;11.53;;;;;;;16.75;81.54;102150.03;5026593;28;20438;-71
2021/07/09 06:37:20;;;;;;;16.80;13.40;;;;;;;16.48;81.15;102112.06;5028948;28;20238;-72
2021/07/09 06:39:45;;;;;;;13.60;11.97;;;;;;;17.23;80.73;102230.31;5032922;28;20193;-71
2021/07/09 06:42:11;;;;;;;10.90;9.80;;;;;;;17.00;81.59;102228.03;5032276;28;20220;-72
2021/07/09 06:44:36;;;;;;;12.37;11.10;;;;;;;16.76;80.81;102149.00;5030324;28;20216;-71
2021/07/09 06:47:03;;;;;;;11.40;10.20;;;;;;;17.34;80.50;102235.13;5026886;28;20269;-71
2021/07/09 06:49:28;;;;;;;15.17;11.50;;;;;;;17.30;80.61;102236.56;5026085;28;20203;-72
2021/07/09 06:51:53;;;;;;;11.77;10.63;;;;;;;17.42;79.63;102237.63;5033280;28;20542;-72
2021/07/09 06:54:19;;;;;;;10.80;9.70;;;;;;;17.31;80.05;102236.38;5031384;28;20192;-72
2021/07/09 06:56:45;;;;;;;13.23;9.67;;;;;;;17.04;80.36;102183.19;5029163;28;20295;-71
2021/07/09 06:59:10;;;;;;;11.33;9.03;;;;;;;17.35;79.46;102239.50;5029919;28;20202;-71
2021/07/09 07:01:35;;;;;;;10.37;9.37;;;;;;;17.37;79.49;102242.84;5027223;28;20216;-71
2021/07/09 07:04:01;;;;;;;10.87;9.77;;;;;;;17.27;79.50;102248.69;5029870;28;20192;-72
2021/07/09 07:06:26;;;;;;;9.27;8.37;;;;;;;17.23;79.13;102201.31;5029612;28;20223;-72
2021/07/09 07:08:51;;;;;;;9.37;8.47;;;;;;;17.22;79.29;102206.97;5031943;28;20229;-71
2021/07/09 07:11:17;;;;;;;9.53;8.60;;;;;;;17.13;78.69;102171.94;5029248;28;20242;-72
2021/07/09 07:13:42;;;;;;;10.53;8.33;;;;;;;17.53;79.56;102241.56;5027470;28;20219;-71
2021/07/09 07:16:08;;;;;;;10.13;9.07;;;;;;;17.40;78.76;102207.97;5030509;28;20999;-72
2021/07/09 07:18:34;;;;;;;10.17;9.10;;;;;;;17.34;79.51;102208.00;5028870;28;20547;-72
2021/07/09 07:20:59;;;;;;;9.37;8.13;;;;;;;17.11;78.68;102181.31;5027782;28;20438;-71
2021/07/09 07:23:24;;;;;;;8.77;7.77;;;;;;;17.22;78.56;102172.56;5025259;28;20615;-71
2021/07/09 07:25:51;;;;;;;13.10;8.37;;;;;;;17.59;78.44;102236.13;5030803;28;20204;-71
2021/07/09 07:28:17;;;;;;;8.60;7.27;;;;;;;17.40;78.19;102180.03;5031716;28;20242;-72
2021/07/09 07:30:43;;;;;;;9.20;8.10;;;;;;;17.28;77.13;102135.63;5029057;28;20442;-72
2021/07/09 07:33:12;;;;;;;10.60;9.07;;;;;;;17.89;77.03;102245.69;5031524;28;20976;-71
2021/07/09 07:35:39;;;;;;;9.20;7.83;;;;;;;18.00;76.65;102231.47;5023661;28;20242;-71
2021/07/09 07:38:05;;;;;;;9.13;7.73;;;;;;;18.10;76.56;102226.41;5029032;28;20443;-71
2021/07/09 07:40:31;;;;;;;8.33;7.60;;;;;;;17.90;75.54;102221.03;5029073;28;20446;-72
2021/07/09 07:42:56;;;;;;;8.93;6.47;;;;;;;17.98;77.08;102225.41;5026473;28;20469;-71
2021/07/09 07:45:22;;;;;;;6.20;5.60;;;;;;;17.81;76.18;102200.63;5027801;28;20216;-72
2021/07/09 07:47:47;;;;;;;7.60;6.60;;;;;;;17.79;76.80;102219.84;5035926;28;20263;-72
2021/07/09 07:50:14;;;;;;;7.40;4.90;;;;;;;17.73;75.90;102190.78;5025227;28;20188;-72
2021/07/09 07:52:40;;;;;;;6.37;5.77;;;;;;;18.22;74.99;102235.53;5027966;28;20275;-72
2021/07/09 07:55:06;;;;;;;6.83;6.23;;;;;;;17.60;75.17;102158.28;5029333;28;20844;-72
2021/07/09 07:57:31;;;;;;;6.13;5.53;;;;;;;17.75;75.08;102171.59;5038077;28;20588;-72
2021/07/09 07:59:56;;;;;;;7.60;5.67;;;;;;;18.11;74.13;102217.22;5025944;28;20192;-72
2021/07/09 08:02:22;;;;;;;6.03;5.53;;;;;;;18.10;73.12;102171.28;5035610;28;20258;-72
2021/07/09 08:04:47;;;;;;;5.60;5.10;;;;;;;18.09;73.09;102175.03;5024922;28;20276;-71
2021/07/09 08:07:14;;;;;;;5.90;5.30;;;;;;;18.17;72.67;102193.81;5026737;28;20198;-72
2021/07/09 08:09:40;;;;;;;5.13;4.73;;;;;;;18.21;73.11;102228.44;5024116;28;20192;-71
2021/07/09 08:12:07;;;;;;;5.90;5.40;;;;;;;17.75;73.17;102130.88;5039281;28;20457;-72
2021/07/09 08:14:33;;;;;;;5.80;4.50;;;;;;;17.87;70.86;102142.75;5028748;28;20439;-72
2021/07/09 08:16:58;;;;;;;5.00;4.50;;;;;;;18.09;70.80;102175.88;5030251;28;20451;-71
2021/07/09 08:19:23;;;;;;;5.10;4.60;;;;;;;18.36;70.42;102201.00;5025581;28;20445;-71
2021/07/09 08:21:49;;;;;;;4.97;4.57;;;;;;;17.88;71.70;102111.88;5030378;28;20346;-72
2021/07/09 08:24:16;;;;;;;5.37;4.87;;;;;;;18.41;71.98;102224.81;5027201;28;20187;-72
2021/07/09 08:26:42;;;;;;;6.10;5.10;;;;;;;18.36;71.98;102209.16;5033946;28;20564;-72
2021/07/09 08:29:08;;;;;;;4.27;3.97;;;;;;;18.35;72.64;102214.81;5033545;28;20449;-72
2021/07/09 08:31:34;;;;;;;4.60;4.20;;;;;;;18.60;72.03;102214.84;5031871;28;20482;-71
2021/07/09 08:33:59;;;;;;;5.17;4.67;;;;;;;18.74;70.29;102217.28;5035605;28;20230;-72
2021/07/09 08:36:25;;;;;;;5.87;4.17;;;;;;;18.77;70.50;102212.47;5030042;28;20467;-72
2021/07/09 08:38:53;;;;;;;5.40;3.80;;;;;;;18.66;71.49;102213.97;5027754;28;20188;-72
2021/07/09 08:41:22;;;;;;;5.80;4.30;;;;;;;18.70;69.65;102215.22;5026840;28;20220;-72
2021/07/09 08:43:49;;;;;;;7.13;4.50;;;;;;;18.77;70.71;102215.19;5029664;28;20474;-72
2021/07/09 08:46:17;;;;;;;4.50;4.10;;;;;;;18.73;69.57;102187.59;5028812;28;20462;-72
2021/07/09 08:48:44;;;;;;;4.20;3.90;;;;;;;18.72;69.56;102148.72;5036070;28;20422;-72
2021/07/09 08:51:11;;;;;;;4.80;4.30;;;;;;;19.05;67.22;102204.72;5038786;28;20485;-72
2021/07/09 08:53:38;;;;;;;4.60;4.20;;;;;;;19.18;67.85;102211.97;5036944;28;20483;-72
2021/07/09 08:56:05;;;;;;;3.77;3.47;;;;;;;19.19;67.95;102209.00;5028609;28;20462;-72
2021/07/09 08:58:30;;;;;;;4.60;4.30;;;;;;;19.02;67.53;102180.69;5036158;28;20445;-72
2021/07/09 09:00:56;;;;;;;5.93;4.00;;;;;;;18.79;67.93;102200.34;5029802;28;20752;-71
2021/07/09 09:03:24;;;;;;;4.17;3.87;;;;;;;19.13;68.39;102204.47;5027353;28;20203;-72
2021/07/09 09:05:50;;;;;;;4.20;3.80;;;;;;;19.07;68.89;102209.97;5031819;28;20227;-72
2021/07/09 09:08:25;;;;;;;5.17;4.23;;;;;;;18.88;70.14;102196.28;5036780;28;20497;-72
2021/07/09 09:10:53;;;;;;;4.20;3.80;;;;;;;19.09;68.14;102205.97;5032024;28;20441;-71
2021/07/09 09:13:21;;;;;;;5.60;4.23;;;;;;;19.23;67.37;102203.94;5038399;28;20439;-72
2021/07/09 09:15:59;;;;;;;4.57;4.07;;;;;;;19.42;66.98;102199.38;5031579;28;20502;-72
2021/07/09 09:18:26;;;;;;;5.50;4.10;;;;;;;19.15;66.98;102196.91;5031516;28;20938;-72
2021/07/09 09:21:05;;;;;;;4.70;4.20;;;;;;;19.27;67.76;102205.19;5037388;28;20447;-72
2021/07/09 09:23:32;;;;;;;4.00;3.60;;;;;;;19.27;66.96;102199.72;5031617;28;20470;-72
2021/07/09 09:25:58;;;;;;;4.63;3.90;;;;;;;19.47;67.01;102194.09;5029075;28;20466;-71
2021/07/09 09:28:24;;;;;;;3.73;3.47;;;;;;;19.47;68.14;102144.25;5034773;28;20435;-72
2021/07/09 09:30:52;;;;;;;6.37;4.67;;;;;;;19.88;65.51;102203.50;5035613;28;20450;-72
2021/07/09 09:33:18;;;;;;;5.77;4.80;;;;;;;19.43;65.80;102147.44;5030601;28;20568;-72
2021/07/09 09:35:48;;;;;;;6.97;4.90;;;;;;;19.56;67.75;102165.53;5031360;28;21332;-71
2021/07/09 09:38:18;;;;;;;5.13;4.50;;;;;;;19.92;65.96;102201.97;5034325;28;20466;-72
2021/07/09 09:40:45;;;;;;;4.03;3.63;;;;;;;19.26;65.02;102104.75;5028389;28;20461;-72
2021/07/09 09:43:17;;;;;;;5.20;4.33;;;;;;;19.96;64.79;102202.34;5029590;28;20461;-71
2021/07/09 09:45:43;;;;;;;5.40;4.10;;;;;;;19.24;63.45;102121.31;5024534;28;20459;-71
2021/07/09 09:48:12;;;;;;;5.70;3.80;;;;;;;20.13;65.79;102208.84;5030494;28;20558;-72
2021/07/09 09:50:46;;;;;;;3.93;3.27;;;;;;;19.92;64.33;102199.25;5031845;28;20853;-72
2021/07/09 09:53:12;;;;;;;4.00;3.63;;;;;;;20.18;63.56;102192.63;5039255;28;21411;-72
2021/07/09 09:55:38;;;;;;;3.03;2.83;;;;;;;20.29;64.02;102177.41;5033662;28;20465;-72
2021/07/09 09:58:08;;;;;;;4.30;3.33;;;;;;;19.82;63.50;102205.25;5032101;28;20959;-72
2021/07/09 10:00:34;;;;;;;4.43;3.80;;;;;;;19.45;64.67;102168.16;5032354;28;20796;-71
2021/07/09 10:03:03;;;;;;;3.77;3.33;;;;;;;19.84;65.42;102183.22;5034706;28;20466;-71
2021/07/09 10:05:30;;;;;;;4.33;3.90;;;;;;;19.95;64.73;102173.47;5032529;28;20215;-72
2021/07/09 10:07:57;;;;;;;3.93;3.50;;;;;;;19.84;64.48;102112.44;5028947;28;20438;-72
2021/07/09 10:10:23;;;;;;;3.90;3.60;;;;;;;20.04;63.56;102114.91;5027923;28;20446;-72
2021/07/09 10:12:52;;;;;;;4.33;3.87;;;;;;;20.01;63.91;102197.06;5024117;28;20516;-72
2021/07/09 10:15:19;;;;;;;4.20;3.90;;;;;;;19.67;64.48;102168.56;5033110;28;20208;-72
2021/07/09 10:17:49;;;;;;;6.17;4.23;;;;;;;20.02;64.91;102174.22;5035925;28;20533;-72
2021/07/09 10:20:16;;;;;;;6.67;3.60;;;;;;;19.87;65.44;102177.31;5032941;28;20505;-72
2021/07/09 10:22:43;;;;;;;4.53;4.13;;;;;;;19.41;64.43;102151.44;5028837;28;20481;-72
2021/07/09 10:25:09;;;;;;;4.13;3.83;;;;;;;19.31;64.62;102165.56;5030101;28;20504;-72
2021/07/09 10:27:34;;;;;;;4.03;3.73;;;;;;;19.07;65.14;102164.56;5039017;28;20470;-72
2021/07/09 10:30:03;;;;;;;5.10;3.77;;;;;;;19.71;65.20;102200.56;5024808;28;20446;-71
2021/07/09 10:32:35;;;;;;;8.10;4.60;;;;;;;19.72;64.17;102198.66;5037356;28;20183;-71
2021/07/09 10:35:02;;;;;;;4.57;3.80;;;;;;;19.51;64.25;102195.28;5036164;28;20493;-71
2021/07/09 10:37:31;;;;;;;6.00;3.60;;;;;;;19.40;64.44;102198.75;5031755;28;20501;-70
2021/07/09 10:40:09;;;;;;;4.33;3.93;;;;;;;19.52;64.25;102201.56;5033807;28;20452;-71
2021/07/09 10:42:40;;;;;;;4.23;3.83;;;;;;;19.48;64.13;102198.47;5029902;28;20553;-70
2021/07/09 10:45:14;;;;;;;3.70;3.40;;;;;;;19.45;63.90;102200.81;5031904;28;20462;-70
2021/07/09 10:47:47;;;;;;;3.40;3.20;;;;;;;19.62;63.91;102197.28;5034629;28;20529;-71
2021/07/09 10:50:17;;;;;;;4.23;3.70;;;;;;;19.55;63.59;102166.56;5033888;28;20465;-70
2021/07/09 10:52:57;;;;;;;3.10;2.90;;;;;;;19.76;64.54;102194.41;5031213;28;20426;-71
2021/07/09 10:55:26;;;;;;;4.23;3.93;;;;;;;19.90;63.04;102193.19;5034846;28;20466;-70
2021/07/09 10:58:07;;;;;;;3.70;3.40;;;;;;;20.08;63.43;102200.53;5043541;28;20450;-71
2021/07/09 11:00:43;;;;;;;3.73;3.43;;;;;;;19.94;64.30;102199.88;5031680;28;20452;-71
2021/07/09 11:03:08;;;;;;;3.80;3.50;;;;;;;19.71;63.83;102183.41;5037491;28;20470;-72
2021/07/09 11:05:42;;;;;;;3.03;2.83;;;;;;;19.95;63.80;102189.81;5035890;28;20469;-71
2021/07/09 11:08:29;;;;;;;3.77;3.47;;;;;;;19.90;64.08;102195.09;5032715;28;21243;-71
2021/07/09 11:11:02;;;;;;;6.13;3.80;;;;;;;19.96;65.19;102183.28;5034066;28;20437;-71
2021/07/09 11:13:39;;;;;;;4.30;4.00;;;;;;;19.99;64.16;102197.31;5032530;28;20517;-71
2021/07/09 11:16:23;;;;;;;3.60;3.30;;;;;;;19.78;64.42;102181.41;5036670;28;20485;-72